Main page
METAR-TAF:

METAR-TAF

Airports :

Évreux-Fauville Air Base

Évreux, France

latitude: 49-01N, longitude: 001-13E, elevation: 141 m

Current weather observation

The report was made 38 minutes ago, at 03:00 UTC
Wind 9 kt from the Southwest, varying between South/Southwest and West
Temperature 19°C
Humidity 94%
Pressure 1013 hPa
Visibility 10 km or more
Overcast at a height of 900 ft

METAR: LFOE 230300Z AUTO 23009KT 200V260 9999 OVC009 19/18 Q1013 TEMPO 4000 RA BECMG 22015G25KT

Time: 05:38 (03:38 UTC)


TAF: missing

Weather observations and forecasts of more than 4000 airports (METAR and TAF reports).

The available stations are represented by yellow and red dots on the map.

Hover mouse over dot to see the name of the station.

Then click to see weather observations and forecasts.

To change the map : click on the green buttons with a black cross to zoom in, on the green button with a dash to zoom out, or on the green arrows for adjacent maps.


METAR-TAF: